Home > Products > Valid Products > TAF

000
FTPQ31 PGUM 230700 AAA
TAFPQ
TAF AMD
PGUM 230722Z 2307/2412 10010KT P6SM VCSH SCT016 SCT040 BKN120
      TEMPO 2307/2308 1SM +TSRA BKN010 BKN030CB OVC050
     FM231200 13006KT P6SM VCSH FEW015 SCT040=



000
FTPQ31 PGUM 230500
TAFPQ
TAF
PGUM 230536Z 2306/2412 05007G14KT P6SM VCSH SCT016 SCT040 BKN120
      TEMPO 2306/2307 -SHRA SCT010 BKN030 OVC050
     FM231200 12006KT P6SM VCSH FEW015 SCT040=



000
FTPQ31 PGUM 230400 AAE
TAFPQ
TAF AMD
PGUM 230406Z 2304/2406 05007G14KT P6SM VCSH FEW016 SCT040 BKN120
      TEMPO 2304/2306 -SHRA SCT010 BKN030 OVC050
     FM231200 11007KT P6SM VCSH FEW015 SCT040=



000
FTPQ31 PGUM 222300
TAFPQ
TAF
PGUM 222323Z 2300/2406 03007KT P6SM VCSH FEW016 SCT040 BKN120
     FM230600 11007KT P6SM VCSH FEW015 SCT040=



000
FTPQ31 PGUM 221700
TAFPQ
TAF
PGUM 221731Z 2218/2324 03007KT P6SM VCSH FEW016 SCT040 BKN120
      TEMPO 2222/2302 5SM SHRA SCT014 BKN030=



000
FTPQ31 PGUM 221700
TAFPQ
TAF
PGUM 221731Z 2218/2324 03007KT P6SM VCSH FEW016 SCT040 BKN120
      TEMPO 2222/2302 5SM SHRA SCT014 BKN030=



000
FTPQ31 PGUM 221100
TAFPQ
TAF
PGUM 221120Z 2212/2318 06005KT P6SM VCSH FEW018 SCT050=



000
FTPQ31 PGUM 220500
TAFPQ
TAF
PGUM 220520Z 2206/2312 09007KT P6SM VCSH SCT018=



000
FTPQ31 PGUM 220500
TAFPQ
TAF
PGUM 220520Z 2206/2312 09007KT P6SM VCSH SCT018=



000
FTPQ31 PGUM 212300
TAFPQ
TAF
PGUM 212320Z 2200/2306 09010KT P6SM VCSH SCT022=



000
FTPQ31 PGUM 212300
TAFPQ
TAF
PGUM 212320Z 2200/2306 09010KT P6SM VCSH SCT022=



000
FTPQ31 PGUM 211700
TAFPQ
TAF
PGUM 211726Z 2118/2224 08006KT P6SM VCSH FEW020 SCT100=



000
FTPQ31 PGUM 211100
TAFPQ
TAF
PGUM 211120Z 2112/2218 06007KT P6SM VCSH FEW020 SCT100=



000
FTPQ31 PGUM 211100
TAFPQ
TAF
PGUM 211120Z 2112/2218 06007KT P6SM VCSH FEW020 SCT100=



000
FTPQ31 PGUM 211100
TAFPQ
TAF
PGUM 211120Z 2112/2218 06007KT P6SM VCSH FEW020 SCT100=



000
FTPQ31 PGUM 211100
TAFPQ
TAF
PGUM 211120Z 2112/2218 06007KT P6SM VCSH FEW020 SCT100=



000
FTPQ31 PGUM 210500
TAFPQ
TAF
PGUM 210523Z 2106/2212 05007KT P6SM VCSH SCT020 SCT050=



000
FTPQ31 PGUM 210500
TAFPQ
TAF
PGUM 210523Z 2106/2212 05007KT P6SM VCSH SCT020 SCT050=



000
FTPQ31 PGUM 202300
TAFPQ
TAF
PGUM 202320Z 2100/2206 05011KT P6SM SCT025=



000
FTPQ31 PGUM 202300
TAFPQ
TAF
PGUM 202320Z 2100/2206 05011KT P6SM SCT025=



000
FTPQ31 PGUM 201700
TAFPQ
TAF
PGUM 201720Z 2018/2124 05009KT P6SM VCSH FEW025 FEW100=



000
FTPQ31 PGUM 201700
TAFPQ
TAF
PGUM 201720Z 2018/2124 05009KT P6SM VCSH FEW025 FEW100=



000
FTPQ31 PGUM 201100
TAFPQ
TAF
PGUM 201120Z 2012/2118 05009KT P6SM VCSH FEW025 FEW100=



000
FTPQ31 PGUM 201100
TAFPQ
TAF
PGUM 201120Z 2012/2118 05009KT P6SM VCSH FEW025 FEW100=



    US Dept of Commerce
    National Oceanic and Atmospheric Administration
    National Weather Service
    1325 East West Highway
    Silver Spring, MD 20910
    Page Author: NWS Internet Services Team
Disclaimer
Information Quality
Credits
Glossary
Privacy Policy
Freedom of Information Act (FOIA)
About Us
Career Opportunities